HTIR/IRI METAR and TAF weather

Enter ICAO airport designator
Station Type Date Time Source
HTIR METAR 2022/06/29 17:00 UTC NOAA

HTIR 291700Z 19004KT 9999 FEW019 16/10 Q1024


Station Type Date Time Source
HTIR Decoded METAR 2022/06/29 17:00 UTC NOAA

Iringa, Tanzania (HTIR) 07-40S 035-45E 1428M
Jun 29, 2022 - 01:00 PM EDT / 2022.06.29 1700 UTC
Wind: from the S (190 degrees) at 5 MPH (4 KT):0
Visibility: greater than 7 mile(s):0
Sky conditions: mostly clear
Temperature: 60 F (16 C)
Dew Point: 50 F (10 C)
Relative Humidity: 67%
Pressure (altimeter): 30.24 in. Hg (1024 hPa)
ob: HTIR 291700Z 19004KT 9999 FEW019 16/10 Q1024
cycle: 17

Station Type Date Time Source
HTIR TAF UTC NOAA

Error!

Example: see airport list